Time;durP1;ratioP1;P1;durP2;ratioP2;P2;SDS_P1;SDS_P2;PMS_P1;PMS_P2;Temp;Humidity;BMP_temperature;BMP_pressure;BME280_temperature;BME280_humidity;BME280_pressure;Samples;Min_cycle;Max_cycle;Signal;HPM_P1;HPM_P2
2022/07/19 00:00:12;;;;;;;4.90;2.70;;;;;;;16.58;60.58;96598.00;2064521;28;20380;-36
2022/07/19 00:01:13;;;;;;;4.03;2.40;;;;;;;16.56;60.38;96605.94;2049091;28;20523;-37
2022/07/19 00:02:14;;;;;;;5.50;2.45;;;;;;;16.52;60.98;96597.44;2048227;28;20082;-36
2022/07/19 00:03:17;;;;;;;4.63;2.40;;;;;;;16.51;60.89;96598.34;2048357;29;20524;-36
2022/07/19 00:04:18;;;;;;;5.47;2.50;;;;;;;16.50;59.74;96594.06;2049076;28;20401;-37
2022/07/19 00:05:19;;;;;;;3.70;2.42;;;;;;;16.49;60.82;96597.63;2057405;28;20054;-36
2022/07/19 00:06:20;;;;;;;5.43;2.53;;;;;;;16.48;62.84;96600.34;2064579;28;20046;-39
2022/07/19 00:07:22;;;;;;;4.53;2.33;;;;;;;16.44;61.82;96590.97;2064453;28;20049;-36
2022/07/19 00:08:23;;;;;;;7.90;2.45;;;;;;;16.43;62.02;96597.16;2064170;28;20443;-38
2022/07/19 00:09:24;;;;;;;4.43;2.50;;;;;;;16.41;64.04;96599.00;2064522;28;20432;-36
2022/07/19 00:10:25;;;;;;;4.97;2.38;;;;;;;16.37;64.29;96598.38;2072549;28;20530;-37
2022/07/19 00:11:26;;;;;;;5.80;2.65;;;;;;;16.36;64.27;96595.84;2063702;28;20050;-37
2022/07/19 00:12:28;;;;;;;9.45;2.70;;;;;;;16.34;64.66;96595.09;2064239;28;20034;-35
2022/07/19 00:13:29;;;;;;;6.35;2.67;;;;;;;16.31;64.42;96599.59;2072348;28;20392;-39
2022/07/19 00:14:30;;;;;;;5.90;2.50;;;;;;;16.30;63.84;96600.53;2063770;28;20042;-36
2022/07/19 00:15:31;;;;;;;7.70;2.50;;;;;;;16.27;64.15;96597.25;2056283;28;20043;-38
2022/07/19 00:16:32;;;;;;;5.00;2.60;;;;;;;16.26;63.64;96598.19;2064053;28;20038;-36
2022/07/19 00:17:34;;;;;;;7.72;2.50;;;;;;;16.24;63.44;96595.63;2064440;28;20042;-37
2022/07/19 00:18:35;;;;;;;6.00;2.55;;;;;;;16.22;64.18;96591.44;2056685;28;20046;-36
2022/07/19 00:19:36;;;;;;;4.80;2.80;;;;;;;16.19;64.02;96592.44;2041276;28;20494;-37
2022/07/19 00:20:37;;;;;;;5.50;2.55;;;;;;;16.18;64.53;96600.44;2040235;29;20056;-37
2022/07/19 00:21:39;;;;;;;7.03;2.22;;;;;;;16.16;64.17;96592.63;2056419;28;20047;-37
2022/07/19 00:22:40;;;;;;;5.32;2.80;;;;;;;16.15;64.27;96600.63;2056229;28;20529;-38
2022/07/19 00:23:41;;;;;;;3.65;2.30;;;;;;;16.12;64.56;96598.16;2064091;28;20058;-36
2022/07/19 00:24:42;;;;;;;6.93;2.78;;;;;;;16.10;64.34;96593.84;2056519;28;20149;-36
2022/07/19 00:25:43;;;;;;;5.03;2.50;;;;;;;16.07;64.62;96594.03;2057255;28;20121;-38
2022/07/19 00:26:44;;;;;;;8.48;2.83;;;;;;;16.05;64.77;96595.91;2064390;28;20571;-37
2022/07/19 00:27:46;;;;;;;5.63;2.80;;;;;;;16.03;64.74;96589.91;2063800;28;20058;-37
2022/07/19 00:28:47;;;;;;;7.25;2.63;;;;;;;16.01;64.55;96598.78;2056647;28;20061;-37
2022/07/19 00:29:48;;;;;;;4.43;2.42;;;;;;;16.01;64.88;96599.66;2072806;28;20048;-37
2022/07/19 00:30:49;;;;;;;5.68;2.70;;;;;;;15.99;64.50;96601.50;2072414;28;20054;-36
2022/07/19 00:31:50;;;;;;;5.18;2.70;;;;;;;15.96;64.98;96591.22;2048638;28;20054;-36
2022/07/19 00:32:52;;;;;;;5.75;2.35;;;;;;;15.93;64.72;96601.88;2040281;29;20564;-39
2022/07/19 00:33:53;;;;;;;4.90;2.63;;;;;;;15.93;64.70;96601.03;2048842;28;20524;-37
2022/07/19 00:34:54;;;;;;;7.78;2.53;;;;;;;15.92;64.73;96594.09;2063980;28;20050;-38
2022/07/19 00:35:55;;;;;;;7.55;3.10;;;;;;;15.91;64.72;96598.50;2056006;28;20531;-35
2022/07/19 00:36:56;;;;;;;4.72;2.22;;;;;;;15.90;63.82;96588.94;2056252;28;20046;-37
2022/07/19 00:38:05;;;;;;;6.10;2.38;;;;;;;15.90;63.82;96588.94;2056212;28;20073;-37
2022/07/19 00:39:07;;;;;;;4.70;2.65;;;;;;;15.90;63.83;96593.34;2057903;28;20051;-37
2022/07/19 00:40:09;;;;;;;6.43;2.28;;;;;;;15.87;64.12;96587.34;2056274;28;20039;-37
2022/07/19 00:41:10;;;;;;;4.05;2.58;;;;;;;15.87;64.39;96597.00;2048611;28;20576;-40
2022/07/19 00:42:11;;;;;;;6.40;2.42;;;;;;;15.88;65.56;96588.22;2048500;28;20413;-37
2022/07/19 00:43:12;;;;;;;5.05;2.53;;;;;;;15.86;65.38;96590.06;2048344;28;20059;-40
2022/07/19 00:44:13;;;;;;;4.97;2.33;;;;;;;15.84;66.09;96595.38;2040724;29;20043;-37
2022/07/19 00:45:15;;;;;;;5.97;3.08;;;;;;;15.81;66.77;96597.34;2056365;28;20054;-39
2022/07/19 00:46:19;;;;;;;5.85;2.72;;;;;;;15.81;66.76;96603.44;2073100;28;20042;-36
2022/07/19 00:47:20;;;;;;;4.82;2.80;;;;;;;15.80;66.34;96595.69;2072107;28;20045;-39
2022/07/19 00:48:22;;;;;;;6.93;2.65;;;;;;;15.80;66.16;96598.31;2064277;28;20038;-37
2022/07/19 00:49:23;;;;;;;7.45;2.40;;;;;;;15.79;65.80;96600.06;2072503;28;20049;-38
2022/07/19 00:50:24;;;;;;;5.15;2.80;;;;;;;15.77;66.33;96596.72;2064087;28;20053;-36
2022/07/19 00:51:25;;;;;;;4.85;2.78;;;;;;;15.77;65.99;96601.06;2064274;28;20050;-36
2022/07/19 00:52:27;;;;;;;6.30;2.63;;;;;;;15.72;66.48;96595.28;2080138;28;20037;-39
2022/07/19 00:53:28;;;;;;;6.13;2.90;;;;;;;15.70;66.65;96594.53;2071510;28;20053;-35
2022/07/19 00:54:30;;;;;;;6.53;2.85;;;;;;;15.64;67.72;96593.09;2063461;28;20045;-37
2022/07/19 00:55:32;;;;;;;6.78;2.83;;;;;;;15.66;67.69;96594.69;2049335;28;20069;-36
2022/07/19 00:56:34;;;;;;;3.95;2.80;;;;;;;15.66;68.48;96599.03;2049666;28;20046;-36
2022/07/19 00:57:37;;;;;;;4.32;2.55;;;;;;;15.64;68.78;96593.91;2048741;28;20076;-40
2022/07/19 00:58:39;;;;;;;5.57;2.72;;;;;;;15.61;68.25;96601.97;2056790;28;20062;-36
2022/07/19 00:59:41;;;;;;;6.70;3.08;;;;;;;15.59;67.77;96595.97;2080227;28;20483;-35
2022/07/19 01:00:42;;;;;;;4.68;2.53;;;;;;;15.59;68.29;96595.97;2072474;28;20049;-34
2022/07/19 01:01:43;;;;;;;5.68;2.65;;;;;;;15.60;68.26;96599.41;2056082;28;20043;-39
2022/07/19 01:02:45;;;;;;;4.97;2.97;;;;;;;15.56;67.90;96606.59;2063762;28;20038;-37
2022/07/19 01:03:46;;;;;;;4.07;2.72;;;;;;;15.54;67.82;96595.38;2056253;28;20081;-36
2022/07/19 01:04:47;;;;;;;7.18;3.10;;;;;;;15.54;68.45;96595.38;2048452;28;20051;-39
2022/07/19 01:05:48;;;;;;;4.50;2.72;;;;;;;15.54;67.53;96605.84;2048340;28;20405;-36
2022/07/19 01:06:49;;;;;;;4.93;3.03;;;;;;;15.52;67.68;96602.47;2063809;28;20046;-35
2022/07/19 01:07:51;;;;;;;6.10;2.72;;;;;;;15.50;67.51;96599.09;2071980;28;20053;-36
2022/07/19 01:08:52;;;;;;;4.95;2.65;;;;;;;15.50;67.91;96598.25;2072344;28;20499;-36
2022/07/19 01:09:53;;;;;;;3.85;2.35;;;;;;;15.47;67.25;96601.03;2063924;28;20061;-39
2022/07/19 01:10:55;;;;;;;5.05;2.78;;;;;;;15.46;67.72;96604.59;2056347;28;20527;-36
2022/07/19 01:11:56;;;;;;;6.32;2.70;;;;;;;15.42;68.32;96601.28;2055946;28;20066;-35
2022/07/19 01:12:57;;;;;;;6.25;3.10;;;;;;;15.39;68.72;96597.06;2055998;28;20045;-34
2022/07/19 01:13:58;;;;;;;6.93;2.95;;;;;;;15.39;68.34;96601.47;2072203;28;20046;-37
2022/07/19 01:14:59;;;;;;;7.32;3.00;;;;;;;15.38;68.26;96599.81;2072288;28;20045;-35
2022/07/19 01:16:01;;;;;;;6.65;2.80;;;;;;;15.38;69.08;96610.28;2072597;28;20073;-37
2022/07/19 01:17:03;;;;;;;8.13;2.88;;;;;;;15.36;69.22;96606.88;2079747;28;20048;-37
2022/07/19 01:18:04;;;;;;;5.90;2.70;;;;;;;15.35;69.53;96605.22;2056269;28;20058;-38
2022/07/19 01:19:05;;;;;;;3.72;2.63;;;;;;;15.32;69.67;96605.38;2056403;28;20046;-35
2022/07/19 01:20:07;;;;;;;6.15;2.95;;;;;;;15.29;70.44;96601.16;2056172;28;20053;-36
2022/07/19 01:21:16;;;;;;;5.43;2.90;;;;;;;15.29;71.18;96602.91;2048051;28;20054;-40
2022/07/19 01:22:18;;;;;;;7.07;3.10;;;;;;;15.27;70.89;96603.03;2071247;28;20125;-35
2022/07/19 01:23:19;;;;;;;4.30;2.95;;;;;;;15.26;70.71;96603.09;2071318;28;20459;-34
2022/07/19 01:24:20;;;;;;;5.13;2.85;;;;;;;15.23;71.15;96601.50;2063767;28;20058;-39
2022/07/19 01:25:22;;;;;;;5.20;2.97;;;;;;;15.21;71.37;96600.75;2055326;28;20432;-35
2022/07/19 01:26:23;;;;;;;6.30;2.95;;;;;;;15.20;70.88;96601.66;2047635;28;20058;-36
2022/07/19 01:27:24;;;;;;;5.50;2.78;;;;;;;15.18;70.72;96596.53;2048474;28;20445;-40
2022/07/19 01:28:25;;;;;;;7.47;3.53;;;;;;;15.16;71.42;96608.84;2055975;28;20043;-36
2022/07/19 01:29:27;;;;;;;5.97;2.90;;;;;;;15.14;70.66;96608.09;2080353;28;20042;-39
2022/07/19 01:30:28;;;;;;;6.40;2.92;;;;;;;15.12;71.36;96601.25;2063863;28;20042;-36
2022/07/19 01:31:29;;;;;;;4.72;2.90;;;;;;;15.10;71.23;96598.75;2056714;28;20563;-37
2022/07/19 01:32:30;;;;;;;5.00;2.85;;;;;;;15.11;71.19;96604.81;2055971;28;20046;-35
2022/07/19 01:33:37;;;;;;;6.57;3.00;;;;;;;15.09;71.19;96604.88;2056322;28;20410;-37
2022/07/19 01:34:38;;;;;;;5.82;3.13;;;;;;;15.06;71.22;96602.44;2056945;28;20050;-36
2022/07/19 01:35:39;;;;;;;6.10;3.22;;;;;;;15.05;71.60;96600.78;2057285;28;20051;-37
2022/07/19 01:36:41;;;;;;;4.38;3.20;;;;;;;15.04;70.94;96601.69;2055908;28;20445;-39
2022/07/19 01:37:42;;;;;;;11.10;3.20;;;;;;;15.02;70.88;96606.16;2048470;28;20055;-36
2022/07/19 01:38:43;;;;;;;8.38;3.03;;;;;;;14.99;71.67;96603.69;2063847;28;20073;-38
2022/07/19 01:39:44;;;;;;;4.32;2.95;;;;;;;14.98;71.07;96602.03;2071935;28;20053;-35
2022/07/19 01:40:45;;;;;;;5.97;2.90;;;;;;;14.99;70.96;96604.56;2072288;28;20065;-37
2022/07/19 01:41:47;;;;;;;4.68;3.13;;;;;;;14.98;71.82;96599.41;2063647;28;20053;-36
2022/07/19 01:42:48;;;;;;;4.22;2.92;;;;;;;14.96;71.76;96599.47;2063386;28;20050;-35
2022/07/19 01:43:49;;;;;;;5.00;3.15;;;;;;;14.94;71.94;96603.97;2072375;28;20049;-39
2022/07/19 01:44:50;;;;;;;4.93;3.20;;;;;;;14.95;71.84;96604.81;2071943;28;20049;-37
2022/07/19 01:45:53;;;;;;;5.95;2.83;;;;;;;14.93;72.14;96604.88;2063583;28;20053;-38
2022/07/19 01:46:54;;;;;;;5.22;2.75;;;;;;;14.92;72.06;96602.38;2063951;28;20035;-35
2022/07/19 01:47:55;;;;;;;4.97;3.00;;;;;;;14.89;72.72;96605.13;2056570;28;20042;-39
2022/07/19 01:48:57;;;;;;;5.32;3.03;;;;;;;14.87;72.70;96600.00;2048445;29;20468;-37
2022/07/19 01:49:58;;;;;;;5.07;3.00;;;;;;;14.87;73.04;96600.00;2048351;28;20058;-38
2022/07/19 01:50:59;;;;;;;5.78;2.97;;;;;;;14.87;73.03;96601.78;2055847;28;20046;-37
2022/07/19 01:52:00;;;;;;;5.57;3.22;;;;;;;14.86;73.28;96600.06;2055691;28;20047;-36
2022/07/19 01:53:02;;;;;;;8.98;3.15;;;;;;;14.84;72.87;96600.16;2063717;28;20058;-40
2022/07/19 01:54:03;;;;;;;4.88;2.70;;;;;;;14.83;72.75;96600.25;2071535;28;20435;-36
2022/07/19 01:55:04;;;;;;;5.65;3.20;;;;;;;14.78;73.05;96596.13;2080153;28;20049;-37
2022/07/19 01:56:06;;;;;;;5.05;3.17;;;;;;;14.78;72.92;96592.63;2072063;28;20057;-38
2022/07/19 01:57:07;;;;;;;7.25;3.15;;;;;;;14.76;72.56;96592.75;2071786;28;20053;-37
2022/07/19 01:58:08;;;;;;;3.80;2.92;;;;;;;14.76;72.69;96597.97;2071332;28;20041;-37
2022/07/19 01:59:09;;;;;;;5.40;3.00;;;;;;;14.76;72.68;96590.13;2063867;28;20685;-37
2022/07/19 02:00:11;;;;;;;4.65;3.03;;;;;;;14.76;72.20;96592.75;2064365;28;20053;-39
2022/07/19 02:01:13;;;;;;;5.07;3.40;;;;;;;14.74;71.42;96591.97;2064960;28;20046;-37
2022/07/19 02:02:14;;;;;;;5.07;2.80;;;;;;;14.71;70.77;96589.53;2071750;28;20061;-36
2022/07/19 02:03:16;;;;;;;6.78;3.20;;;;;;;14.72;70.88;96588.59;2080293;28;20049;-37
2022/07/19 02:04:17;;;;;;;5.72;3.00;;;;;;;14.73;70.40;96587.69;2063676;28;20058;-37
2022/07/19 02:05:19;;;;;;;3.63;2.88;;;;;;;14.72;70.76;96583.38;2055916;28;20456;-37
2022/07/19 02:06:21;;;;;;;5.13;2.78;;;;;;;14.71;70.54;96581.69;2064291;28;20050;-37
2022/07/19 02:07:22;;;;;;;4.28;2.88;;;;;;;14.73;70.93;96582.47;2071831;28;20057;-40
2022/07/19 02:08:24;;;;;;;7.78;2.78;;;;;;;14.73;70.49;96577.22;2064146;28;20042;-36
2022/07/19 02:09:25;;;;;;;6.40;3.15;;;;;;;14.74;71.63;96573.69;2056163;28;20511;-37
2022/07/19 02:10:27;;;;;;;6.57;2.72;;;;;;;14.73;71.63;96577.22;2048283;28;20051;-38
2022/07/19 02:11:35;;;;;;;7.32;3.15;;;;;;;14.73;72.54;96584.22;2047558;29;20043;-37
2022/07/19 02:12:37;;;;;;;6.55;3.55;;;;;;;14.70;73.84;96582.63;2057125;28;20097;-37
2022/07/19 02:13:38;;;;;;;6.40;3.38;;;;;;;14.68;73.81;96581.03;2073192;28;20037;-35
2022/07/19 02:14:39;;;;;;;6.00;3.28;;;;;;;14.67;74.50;96577.53;2063922;28;20425;-34
2022/07/19 02:15:41;;;;;;;6.05;3.40;;;;;;;14.67;74.15;96574.09;2063894;28;20042;-39
2022/07/19 02:16:42;;;;;;;4.93;3.22;;;;;;;14.65;74.23;96574.19;2055782;28;20050;-37
2022/07/19 02:17:43;;;;;;;6.68;3.38;;;;;;;14.64;74.52;96574.25;2055828;28;20528;-36
2022/07/19 02:18:45;;;;;;;4.38;3.33;;;;;;;14.64;74.77;96579.50;2071483;28;20049;-40
2022/07/19 02:19:46;;;;;;;6.50;3.05;;;;;;;14.62;74.67;96573.50;2072711;28;20059;-38
2022/07/19 02:20:47;;;;;;;5.90;3.15;;;;;;;14.59;74.99;96574.50;2079550;28;20052;-37
2022/07/19 02:21:48;;;;;;;4.82;3.13;;;;;;;14.55;73.85;96573.00;2071760;28;20430;-37
2022/07/19 02:22:50;;;;;;;6.35;2.80;;;;;;;14.52;72.53;96576.63;2063096;28;20439;-36
2022/07/19 02:23:51;;;;;;;10.57;3.03;;;;;;;14.49;72.55;96568.91;2071940;28;20069;-39
2022/07/19 02:24:52;;;;;;;6.38;2.90;;;;;;;14.47;71.86;96564.69;2071401;28;20061;-37
2022/07/19 02:25:54;;;;;;;4.40;2.88;;;;;;;14.43;72.26;96566.59;2056435;28;20051;-38
2022/07/19 02:26:55;;;;;;;6.30;2.95;;;;;;;14.40;72.09;96564.16;2048458;28;20054;-35
2022/07/19 02:27:56;;;;;;;5.60;3.05;;;;;;;14.39;72.11;96561.66;2048206;28;20047;-37
2022/07/19 02:28:57;;;;;;;9.38;3.45;;;;;;;14.37;72.09;96566.94;2056474;28;20054;-39
2022/07/19 02:29:58;;;;;;;7.97;3.47;;;;;;;14.34;71.92;96560.09;2071744;28;20435;-36
2022/07/19 02:31:00;;;;;;;4.80;2.90;;;;;;;14.32;72.64;96564.56;2065194;28;20050;-37
2022/07/19 02:32:01;;;;;;;8.95;3.42;;;;;;;14.29;72.29;96562.13;2047884;28;20064;-35
2022/07/19 02:33:02;;;;;;;9.18;3.13;;;;;;;14.27;72.59;96563.13;2047037;29;20528;-36
2022/07/19 02:34:03;;;;;;;5.53;3.03;;;;;;;14.22;72.64;96560.78;2056165;28;20039;-39
2022/07/19 02:35:06;;;;;;;7.18;3.00;;;;;;;14.22;72.75;96570.34;2065293;28;20057;-37
2022/07/19 02:36:07;;;;;;;5.22;3.45;;;;;;;14.18;72.98;96568.84;2073115;28;20049;-36
2022/07/19 02:37:08;;;;;;;8.40;2.97;;;;;;;14.17;73.22;96562.78;2065005;28;20047;-37
2022/07/19 02:38:09;;;;;;;6.10;3.50;;;;;;;14.16;73.46;96563.69;2049664;28;20537;-39
2022/07/19 02:39:11;;;;;;;8.98;3.58;;;;;;;14.12;74.80;96564.78;2057356;28;20501;-36
2022/07/19 02:40:12;;;;;;;8.05;3.78;;;;;;;14.13;74.94;96561.25;2057675;28;20069;-37
2022/07/19 02:41:13;;;;;;;8.63;3.72;;;;;;;14.12;75.09;96556.97;2049919;28;20051;-35
2022/07/19 02:42:14;;;;;;;6.93;3.40;;;;;;;14.16;74.89;96558.47;2065141;28;20054;-37
2022/07/19 02:43:16;;;;;;;12.07;3.05;;;;;;;14.17;74.90;96561.94;2065240;28;20042;-39
2022/07/19 02:44:17;;;;;;;5.90;3.05;;;;;;;14.13;74.79;96561.25;2056850;28;20058;-37
2022/07/19 02:45:18;;;;;;;4.93;3.20;;;;;;;14.11;74.25;96558.72;2040993;29;20051;-38
2022/07/19 02:46:19;;;;;;;5.38;3.42;;;;;;;14.09;74.39;96559.72;2041605;28;20434;-34
2022/07/19 02:47:20;;;;;;;8.18;3.47;;;;;;;14.08;74.77;96558.03;2049195;28;20058;-36
2022/07/19 02:48:22;;;;;;;9.25;3.42;;;;;;;14.06;74.80;96555.50;2057484;28;20046;-39
2022/07/19 02:49:23;;;;;;;6.38;3.30;;;;;;;14.06;74.98;96559.88;2041228;28;20044;-37
2022/07/19 02:50:24;;;;;;;8.38;4.05;;;;;;;14.05;75.10;96563.41;2049158;28;20050;-38
2022/07/19 02:51:26;;;;;;;6.68;3.63;;;;;;;14.01;74.56;96556.69;2072650;28;20049;-36
2022/07/19 02:52:29;;;;;;;9.63;3.95;;;;;;;13.99;74.96;96559.34;2065212;28;20072;-36
2022/07/19 02:53:30;;;;;;;8.98;3.72;;;;;;;13.97;75.03;96560.34;2072434;28;20041;-38
2022/07/19 02:54:32;;;;;;;6.53;4.03;;;;;;;13.97;74.73;96558.59;2065095;28;20046;-35
2022/07/19 02:55:33;;;;;;;6.55;3.78;;;;;;;13.94;74.39;96556.13;2048824;28;20046;-36
2022/07/19 02:56:36;;;;;;;6.80;4.13;;;;;;;13.85;75.10;96547.03;2064652;28;20712;-35
2022/07/19 02:57:37;;;;;;;6.38;4.05;;;;;;;13.90;74.99;96552.84;2072115;28;20053;-36
2022/07/19 02:58:38;;;;;;;9.18;3.60;;;;;;;13.90;75.30;96557.22;2049448;28;20046;-34
2022/07/19 02:59:39;;;;;;;7.75;3.45;;;;;;;13.90;75.61;96550.25;2056666;28;20058;-37
2022/07/19 03:00:40;;;;;;;8.32;3.80;;;;;;;13.89;75.63;96552.91;2057377;28;20421;-36
2022/07/19 03:01:42;;;;;;;7.57;3.60;;;;;;;13.88;75.53;96556.47;2064556;28;20143;-37
2022/07/19 03:02:43;;;;;;;7.35;4.10;;;;;;;13.88;75.26;96552.06;2072614;28;20546;-37
2022/07/19 03:03:44;;;;;;;10.50;4.30;;;;;;;13.87;74.99;96555.63;2056929;28;20051;-34
2022/07/19 03:04:45;;;;;;;6.93;4.10;;;;;;;13.85;75.26;96556.63;2057214;28;20076;-36
2022/07/19 03:05:47;;;;;;;8.60;4.18;;;;;;;13.82;75.76;96555.00;2056923;28;20046;-40
2022/07/19 03:06:49;;;;;;;5.75;4.22;;;;;;;13.82;75.74;96557.63;2057990;28;20315;-37
2022/07/19 03:07:50;;;;;;;6.82;4.20;;;;;;;13.83;76.78;96556.69;2065185;28;20061;-39
2022/07/19 03:08:51;;;;;;;7.35;4.47;;;;;;;13.82;76.79;96562.84;2064843;28;20516;-37
2022/07/19 03:09:52;;;;;;;9.27;4.63;;;;;;;13.83;77.71;96564.53;2049603;28;20051;-35
2022/07/19 03:10:54;;;;;;;8.88;3.67;;;;;;;13.83;77.68;96564.53;2057251;28;20065;-36
2022/07/19 03:11:55;;;;;;;9.20;4.88;;;;;;;13.80;78.45;96562.06;2064861;28;20049;-40
2022/07/19 03:12:56;;;;;;;6.97;4.65;;;;;;;13.78;77.92;96561.28;2056528;28;20413;-35
2022/07/19 03:13:57;;;;;;;6.75;4.07;;;;;;;13.80;77.33;96574.28;2065051;28;20050;-38
2022/07/19 03:14:58;;;;;;;5.65;4.00;;;;;;;13.81;77.58;96571.56;2072519;28;20055;-36
2022/07/19 03:15:59;;;;;;;7.32;4.30;;;;;;;13.84;76.70;96562.75;2072758;28;20042;-36
2022/07/19 03:17:01;;;;;;;10.35;4.40;;;;;;;13.83;76.57;96561.91;2064898;28;20065;-33
2022/07/19 03:18:03;;;;;;;7.80;4.20;;;;;;;13.83;76.14;96561.91;2049593;28;20047;-35
2022/07/19 03:19:04;;;;;;;7.30;4.15;;;;;;;13.82;76.67;96567.19;2064321;28;20050;-36
2022/07/19 03:20:06;;;;;;;9.82;4.25;;;;;;;13.80;76.26;96563.84;2072428;28;20054;-36
2022/07/19 03:21:07;;;;;;;7.10;3.95;;;;;;;13.78;75.88;96563.91;2064758;28;20109;-35
2022/07/19 03:22:08;;;;;;;6.78;3.92;;;;;;;13.78;75.81;96570.91;2064433;28;20061;-36
2022/07/19 03:23:09;;;;;;;7.20;3.95;;;;;;;13.76;76.00;96557.06;2072691;28;20050;-36
2022/07/19 03:24:10;;;;;;;11.00;4.18;;;;;;;13.74;76.20;96558.91;2065190;28;20510;-37
2022/07/19 03:25:11;;;;;;;9.07;4.15;;;;;;;13.74;76.29;96557.16;2064675;28;20050;-38
2022/07/19 03:26:13;;;;;;;8.32;4.20;;;;;;;13.73;75.72;96558.06;2056685;28;20054;-35
2022/07/19 03:27:14;;;;;;;6.30;3.78;;;;;;;13.75;76.00;96558.00;2064919;28;20046;-38
2022/07/19 03:28:15;;;;;;;5.95;3.67;;;;;;;13.75;75.26;96555.41;2072728;28;20052;-35
2022/07/19 03:29:16;;;;;;;6.03;3.80;;;;;;;13.75;75.68;96558.84;2073239;28;20536;-37
2022/07/19 03:30:18;;;;;;;6.22;3.47;;;;;;;13.74;75.79;96559.78;2064270;28;20046;-35
2022/07/19 03:31:19;;;;;;;7.32;3.90;;;;;;;13.74;75.80;96559.78;2056904;28;20053;-37
2022/07/19 03:32:20;;;;;;;5.85;3.75;;;;;;;13.73;75.33;96558.06;2048421;28;20043;-39
2022/07/19 03:33:21;;;;;;;8.32;3.85;;;;;;;13.74;75.55;96551.09;2056939;28;20043;-36
2022/07/19 03:34:22;;;;;;;8.95;4.03;;;;;;;13.72;75.70;96556.41;2073091;28;20053;-36
2022/07/19 03:35:23;;;;;;;6.38;3.95;;;;;;;13.70;75.84;96552.19;2064366;28;20046;-35
2022/07/19 03:36:25;;;;;;;8.73;3.80;;;;;;;13.68;75.43;96552.25;2073086;28;20054;-38
2022/07/19 03:37:26;;;;;;;6.70;3.85;;;;;;;13.68;75.67;96549.63;2065455;28;20038;-38
2022/07/19 03:38:28;;;;;;;6.95;4.18;;;;;;;13.68;75.73;96552.25;2048843;28;20054;-31
2022/07/19 03:39:29;;;;;;;8.52;4.45;;;;;;;13.67;75.46;96545.34;2049195;28;20047;-36
2022/07/19 03:40:30;;;;;;;5.75;3.92;;;;;;;13.69;75.08;96551.34;2048506;29;20070;-36
2022/07/19 03:41:31;;;;;;;6.15;3.75;;;;;;;13.70;75.45;96542.56;2057128;28;20057;-36
2022/07/19 03:42:32;;;;;;;8.15;3.83;;;;;;;13.71;75.24;96538.19;2072516;28;20045;-39
2022/07/19 03:43:34;;;;;;;6.68;3.63;;;;;;;13.72;75.40;96545.13;2064796;28;20042;-37
2022/07/19 03:44:35;;;;;;;6.60;3.67;;;;;;;13.72;75.32;96545.13;2056701;28;20058;-37
2022/07/19 03:45:36;;;;;;;4.85;3.83;;;;;;;13.74;75.07;96538.03;2071914;28;20050;-35
2022/07/19 03:46:37;;;;;;;5.05;3.35;;;;;;;13.75;75.37;96537.97;2071955;28;20042;-37
2022/07/19 03:47:39;;;;;;;5.35;3.90;;;;;;;13.78;75.03;96537.81;2072168;28;20046;-35
2022/07/19 03:48:40;;;;;;;4.70;3.53;;;;;;;13.81;74.61;96537.63;2073523;28;20046;-34
2022/07/19 03:49:41;;;;;;;7.80;4.05;;;;;;;13.83;74.23;96538.41;2064647;28;20042;-37
2022/07/19 03:50:42;;;;;;;6.10;3.72;;;;;;;13.87;74.62;96539.09;2064551;28;20168;-34
2022/07/19 03:51:44;;;;;;;7.97;3.58;;;;;;;13.89;74.46;96538.09;2064925;28;20053;-41
2022/07/19 03:52:45;;;;;;;6.25;3.42;;;;;;;13.91;74.55;96540.63;2064544;28;20042;-37
2022/07/19 03:53:46;;;;;;;9.65;3.63;;;;;;;13.92;74.57;96541.47;2072346;28;20053;-35
2022/07/19 03:54:47;;;;;;;8.95;3.65;;;;;;;13.93;74.12;96540.56;2064388;28;20042;-38
2022/07/19 03:55:49;;;;;;;8.25;3.92;;;;;;;13.96;74.14;96538.63;2048797;28;20551;-36
2022/07/19 03:56:50;;;;;;;6.95;3.63;;;;;;;13.96;73.55;96541.25;2056736;28;20043;-35
2022/07/19 03:57:51;;;;;;;7.18;3.72;;;;;;;13.96;73.71;96541.25;2072699;28;20065;-39
2022/07/19 03:58:52;;;;;;;7.43;3.42;;;;;;;13.98;73.59;96547.22;2072743;28;20053;-37
2022/07/19 03:59:53;;;;;;;12.20;3.70;;;;;;;14.00;73.24;96540.13;2073015;28;20050;-37
2022/07/19 04:00:54;;;;;;;5.95;3.67;;;;;;;14.02;73.06;96543.53;2080426;28;20435;-37
2022/07/19 04:01:55;;;;;;;8.93;4.07;;;;;;;14.02;72.96;96543.53;2080217;28;20068;-36
2022/07/19 04:02:57;;;;;;;9.65;3.60;;;;;;;14.04;72.61;96553.91;2073120;28;20050;-36
2022/07/19 04:03:58;;;;;;;8.73;4.05;;;;;;;14.05;72.64;96548.59;2072308;28;20115;-36
2022/07/19 04:04:59;;;;;;;6.47;3.45;;;;;;;14.06;74.22;96555.50;2072491;28;20053;-39
2022/07/19 04:06:01;;;;;;;8.38;4.18;;;;;;;14.08;76.07;96553.63;2064399;28;20065;-37
2022/07/19 04:07:02;;;;;;;7.45;4.07;;;;;;;14.10;76.83;96558.78;2064327;28;20053;-37
2022/07/19 04:08:03;;;;;;;5.95;3.83;;;;;;;14.14;76.71;96557.72;2073112;28;20057;-36
2022/07/19 04:09:04;;;;;;;7.85;4.07;;;;;;;14.16;76.22;96555.00;2064293;28;20050;-36
2022/07/19 04:10:06;;;;;;;7.75;3.75;;;;;;;14.20;76.03;96557.41;2064012;28;20050;-38
2022/07/19 04:11:08;;;;;;;6.53;3.85;;;;;;;14.21;74.60;96553.84;2057038;28;20082;-38
2022/07/19 04:12:09;;;;;;;7.30;3.53;;;;;;;14.31;73.81;96551.59;2056722;28;20413;-37
2022/07/19 04:13:10;;;;;;;5.72;3.40;;;;;;;14.36;73.88;96556.59;2056714;28;20073;-38
2022/07/19 04:14:11;;;;;;;5.47;3.67;;;;;;;14.38;73.72;96558.19;2056505;28;20050;-36
2022/07/19 04:15:12;;;;;;;7.32;3.85;;;;;;;14.42;72.07;96561.47;2048684;29;20054;-38
2022/07/19 04:16:14;;;;;;;4.93;3.15;;;;;;;14.47;72.98;96554.25;2056611;28;20057;-36
2022/07/19 04:17:15;;;;;;;5.93;3.30;;;;;;;14.47;73.32;96555.06;2072488;28;20042;-36
2022/07/19 04:18:16;;;;;;;9.07;3.78;;;;;;;14.47;72.29;96555.06;2071835;28;20065;-38
2022/07/19 04:19:17;;;;;;;6.28;3.80;;;;;;;14.53;72.12;96559.16;2072714;28;20527;-37
2022/07/19 04:20:18;;;;;;;6.07;3.25;;;;;;;14.57;71.57;96555.47;2064316;28;20053;-38
2022/07/19 04:21:20;;;;;;;7.18;3.60;;;;;;;14.60;71.45;96555.28;2064458;28;20053;-37
2022/07/19 04:22:23;;;;;;;4.68;3.17;;;;;;;14.62;71.55;96552.59;2063389;28;20531;-36
2022/07/19 04:23:24;;;;;;;5.40;3.40;;;;;;;14.64;71.41;96556.81;2064821;28;20412;-37
2022/07/19 04:24:26;;;;;;;6.28;3.78;;;;;;;14.66;71.26;96556.72;2072869;28;20041;-39
2022/07/19 04:25:27;;;;;;;10.40;3.42;;;;;;;14.70;70.86;96560.84;2064104;28;20054;-38
2022/07/19 04:26:28;;;;;;;4.78;3.20;;;;;;;14.73;70.02;96569.38;2056144;28;20058;-32
2022/07/19 04:27:30;;;;;;;6.60;3.63;;;;;;;14.76;70.58;96558.75;2064964;28;20054;-36
2022/07/19 04:28:31;;;;;;;7.18;3.42;;;;;;;14.78;70.77;96554.28;2072498;28;20049;-36
2022/07/19 04:29:32;;;;;;;10.43;3.85;;;;;;;14.84;70.46;96565.34;2072456;28;20057;-38
2022/07/19 04:30:34;;;;;;;5.22;3.63;;;;;;;14.88;70.11;96561.63;2064652;28;20035;-37
2022/07/19 04:31:35;;;;;;;4.63;3.17;;;;;;;14.88;70.12;96559.00;2056329;28;20050;-38
2022/07/19 04:32:36;;;;;;;5.60;3.13;;;;;;;14.88;69.56;96559.00;2039974;29;20051;-33
2022/07/19 04:33:37;;;;;;;5.80;3.50;;;;;;;14.90;70.16;96558.00;2049141;28;20051;-35
2022/07/19 04:34:38;;;;;;;5.68;3.78;;;;;;;14.91;69.88;96562.28;2072282;28;20045;-34
2022/07/19 04:35:39;;;;;;;6.40;3.58;;;;;;;14.92;70.08;96566.59;2073669;28;20533;-36
2022/07/19 04:36:41;;;;;;;14.43;3.75;;;;;;;14.92;69.69;96556.13;2072008;28;20045;-39
2022/07/19 04:37:42;;;;;;;9.32;4.13;;;;;;;14.97;69.31;96556.72;2072391;28;20054;-35
2022/07/19 04:38:43;;;;;;;12.52;3.75;;;;;;;15.01;69.61;96565.25;2072832;28;20165;-36
2022/07/19 04:39:45;;;;;;;5.63;3.75;;;;;;;15.03;68.82;96558.16;2072489;28;20053;-33
2022/07/19 04:40:46;;;;;;;8.73;3.35;;;;;;;15.04;68.21;96562.44;2072560;28;20065;-36
2022/07/19 04:41:47;;;;;;;6.65;3.70;;;;;;;15.09;68.19;96563.03;2073085;28;20060;-38
2022/07/19 04:42:48;;;;;;;5.60;3.42;;;;;;;15.14;67.42;96554.94;2073178;28;20056;-36
2022/07/19 04:43:49;;;;;;;10.07;3.45;;;;;;;15.18;67.98;96562.53;2079893;28;20066;-36
2022/07/19 04:44:51;;;;;;;5.63;3.22;;;;;;;15.25;67.86;96562.19;2079983;28;20072;-35
2022/07/19 04:45:52;;;;;;;6.93;3.67;;;;;;;15.29;67.34;96561.06;2063866;28;20054;-36
2022/07/19 04:46:53;;;;;;;8.23;3.85;;;;;;;15.34;67.46;96559.03;2056073;28;20062;-35
2022/07/19 04:47:54;;;;;;;4.40;3.38;;;;;;;15.40;67.29;96559.53;2055984;28;20050;-35
2022/07/19 04:48:55;;;;;;;8.18;3.45;;;;;;;15.46;66.93;96558.34;2080385;28;20052;-38